Time;durP1;ratioP1;P1;durP2;ratioP2;P2;SDS_P1;SDS_P2;PMS_P1;PMS_P2;Temp;Humidity;BMP_temperature;BMP_pressure;BME280_temperature;BME280_humidity;BME280_pressure;Samples;Min_cycle;Max_cycle;Signal;HPM_P1;HPM_P2
2021/08/25 00:00:06;;;;;;;0.70;0.70;;;17.80;99.90;;;;;;5001904;28;20309;-76
2021/08/25 00:02:33;;;;;;;1.15;0.90;;;17.90;99.90;;;;;;5004304;28;20216;-75
2021/08/25 00:05:03;;;;;;;0.80;0.80;;;17.90;99.90;;;;;;4998673;28;20574;-76
2021/08/25 00:07:30;;;;;;;0.75;0.73;;;17.70;99.90;;;;;;5002702;28;20302;-75
2021/08/25 00:09:57;;;;;;;1.00;0.90;;;17.70;99.90;;;;;;5002406;28;20227;-75
2021/08/25 00:12:24;;;;;;;0.60;0.60;;;17.70;99.90;;;;;;5002830;28;20239;-76
2021/08/25 00:14:51;;;;;;;0.75;0.75;;;17.80;99.90;;;;;;4999804;28;20270;-75
2021/08/25 00:17:19;;;;;;;0.70;0.70;;;17.90;99.90;;;;;;5003768;28;20769;-76
2021/08/25 00:19:47;;;;;;;0.63;0.63;;;18.00;99.90;;;;;;5006195;28;20216;-75
2021/08/25 00:22:16;;;;;;;0.88;0.80;;;18.10;99.90;;;;;;5008496;28;20211;-75
2021/08/25 00:24:43;;;;;;;0.98;0.93;;;18.10;99.90;;;;;;5001316;28;20262;-75
2021/08/25 00:27:10;;;;;;;0.77;0.77;;;18.20;99.90;;;;;;5005200;28;20247;-76
2021/08/25 00:29:38;;;;;;;1.42;1.00;;;18.30;99.90;;;;;;5005438;28;20262;-75
2021/08/25 00:32:06;;;;;;;0.70;0.65;;;18.30;99.90;;;;;;5006593;28;20223;-76
2021/08/25 00:34:33;;;;;;;0.70;0.70;;;18.20;99.90;;;;;;5007538;28;20231;-76
2021/08/25 00:37:00;;;;;;;1.02;0.70;;;18.20;99.90;;;;;;5005147;28;20665;-77
2021/08/25 00:39:28;;;;;;;0.80;0.80;;;18.10;99.90;;;;;;5003109;28;20227;-77
2021/08/25 00:41:55;;;;;;;0.70;0.70;;;18.10;99.90;;;;;;5005248;28;20318;-76
2021/08/25 00:44:23;;;;;;;0.68;0.68;;;18.00;99.90;;;;;;5004117;28;20227;-77
2021/08/25 00:46:50;;;;;;;0.70;0.70;;;17.90;99.90;;;;;;5002621;28;20230;-77
2021/08/25 00:49:18;;;;;;;0.68;0.68;;;17.90;99.90;;;;;;5001969;28;20269;-77
2021/08/25 00:51:46;;;;;;;0.80;0.80;;;17.90;99.90;;;;;;5005633;28;20228;-77
2021/08/25 00:54:15;;;;;;;0.80;0.80;;;17.90;99.90;;;;;;5007649;28;20677;-76
2021/08/25 00:56:45;;;;;;;1.25;0.70;;;17.80;99.90;;;;;;5002682;28;20221;-75
2021/08/25 00:59:13;;;;;;;0.68;0.68;;;17.70;99.90;;;;;;5004741;28;20287;-77
2021/08/25 01:01:51;;;;;;;0.80;0.80;;;17.60;99.90;;;;;;5005692;28;21191;-76
2021/08/25 01:04:28;;;;;;;0.60;0.60;;;17.40;99.90;;;;;;5001744;28;20220;-77
2021/08/25 01:06:57;;;;;;;0.80;0.80;;;17.30;99.90;;;;;;4999810;28;20227;-76
2021/08/25 01:09:24;;;;;;;0.68;0.68;;;17.30;99.90;;;;;;5005098;28;20243;-77
2021/08/25 01:11:57;;;;;;;1.25;0.77;;;17.30;99.90;;;;;;5005556;28;20724;-79
2021/08/25 01:14:24;;;;;;;1.33;0.60;;;17.30;99.90;;;;;;5004460;28;20224;-78
2021/08/25 01:16:53;;;;;;;0.70;0.70;;;17.20;99.90;;;;;;5000981;28;20224;-79
2021/08/25 01:19:22;;;;;;;0.80;0.80;;;17.20;99.90;;;;;;5008079;28;20270;-77
2021/08/25 01:21:49;;;;;;;0.77;0.77;;;17.20;99.90;;;;;;5003227;28;20217;-78
2021/08/25 01:24:19;;;;;;;1.75;0.80;;;17.10;99.90;;;;;;5009602;28;20254;-76
2021/08/25 01:26:50;;;;;;;0.75;0.73;;;17.10;99.90;;;;;;5000754;28;20308;-77
2021/08/25 01:29:24;;;;;;;0.90;0.90;;;17.10;99.90;;;;;;5009011;28;20273;-77
2021/08/25 01:31:52;;;;;;;0.57;0.57;;;17.10;99.90;;;;;;5007370;28;20654;-77
2021/08/25 01:34:19;;;;;;;0.68;0.68;;;17.10;99.90;;;;;;5007288;28;20714;-77
2021/08/25 01:36:50;;;;;;;0.82;0.82;;;17.10;99.90;;;;;;5005362;28;20224;-80
2021/08/25 01:39:17;;;;;;;0.82;0.82;;;17.10;99.90;;;;;;5000741;28;20278;-76
2021/08/25 01:41:44;;;;;;;0.70;0.70;;;17.20;99.90;;;;;;5006805;28;20228;-76
2021/08/25 01:44:11;;;;;;;0.70;0.70;;;17.20;99.90;;;;;;5014254;28;20227;-77
2021/08/25 01:46:41;;;;;;;0.70;0.70;;;17.20;99.90;;;;;;5018309;28;20310;-79
2021/08/25 01:49:10;;;;;;;0.63;0.63;;;17.30;99.90;;;;;;5012350;28;20691;-76
2021/08/25 01:51:39;;;;;;;0.70;0.70;;;17.30;99.90;;;;;;5007290;28;20240;-80
2021/08/25 01:54:07;;;;;;;0.70;0.70;;;17.20;99.90;;;;;;5015217;28;20278;-76
2021/08/25 01:56:34;;;;;;;0.65;0.65;;;17.20;99.90;;;;;;5012242;28;20236;-77
2021/08/25 01:59:02;;;;;;;1.27;0.77;;;17.20;99.90;;;;;;5009920;28;20494;-78
2021/08/25 02:01:30;;;;;;;0.90;0.90;;;17.20;99.90;;;;;;5011250;28;20470;-78
2021/08/25 02:04:01;;;;;;;0.70;0.70;;;17.20;99.90;;;;;;5008819;28;20574;-76
2021/08/25 02:06:29;;;;;;;0.88;0.65;;;17.20;99.90;;;;;;5012748;28;20299;-78
2021/08/25 02:08:56;;;;;;;0.70;0.70;;;17.20;99.90;;;;;;5011279;28;20368;-76
2021/08/25 02:11:23;;;;;;;0.70;0.70;;;17.20;99.90;;;;;;5011682;28;20311;-80
2021/08/25 02:13:50;;;;;;;0.98;0.85;;;17.20;99.90;;;;;;5012526;28;20306;-79
2021/08/25 02:16:17;;;;;;;0.65;0.65;;;17.20;99.90;;;;;;5015171;28;20278;-80
2021/08/25 02:18:44;;;;;;;1.15;1.05;;;17.10;99.90;;;;;;5013847;28;20866;-77
2021/08/25 02:21:13;;;;;;;0.73;0.73;;;17.10;99.90;;;;;;5008841;28;20232;-77
2021/08/25 02:23:40;;;;;;;0.85;0.85;;;17.10;99.90;;;;;;5010469;28;20773;-77
2021/08/25 02:26:15;;;;;;;0.77;0.77;;;17.10;99.90;;;;;;5011163;28;20595;-81
2021/08/25 02:28:43;;;;;;;1.00;1.00;;;17.00;99.90;;;;;;5012541;28;20226;-78
2021/08/25 02:31:10;;;;;;;1.02;0.82;;;16.90;99.90;;;;;;5014954;28;20228;-78
2021/08/25 02:33:38;;;;;;;1.20;1.15;;;16.90;99.90;;;;;;5011572;28;20248;-78
2021/08/25 02:36:05;;;;;;;0.80;0.80;;;16.90;99.90;;;;;;5015517;28;20228;-82
2021/08/25 02:38:34;;;;;;;0.70;0.70;;;16.90;99.90;;;;;;5013760;28;20319;-78
2021/08/25 02:41:01;;;;;;;0.88;0.88;;;17.00;99.90;;;;;;5010604;28;20293;-78
2021/08/25 02:43:28;;;;;;;0.80;0.80;;;17.00;99.90;;;;;;5007854;28;20240;-77
2021/08/25 02:45:55;;;;;;;1.02;0.60;;;17.00;99.90;;;;;;5005067;28;20231;-77
2021/08/25 02:48:23;;;;;;;0.90;0.90;;;17.00;99.90;;;;;;5010745;28;20223;-79
2021/08/25 02:50:50;;;;;;;0.80;0.80;;;17.10;99.90;;;;;;5002885;28;20220;-77
2021/08/25 02:53:18;;;;;;;0.80;0.80;;;17.10;99.90;;;;;;5005073;28;20227;-78
2021/08/25 02:55:47;;;;;;;0.85;0.85;;;17.10;99.90;;;;;;5006256;28;20243;-76
2021/08/25 02:58:14;;;;;;;0.95;0.85;;;17.10;99.90;;;;;;5005242;28;20221;-78
2021/08/25 03:00:42;;;;;;;0.80;0.80;;;17.10;99.90;;;;;;5006042;28;20259;-76
2021/08/25 03:03:09;;;;;;;0.80;0.80;;;17.10;99.90;;;;;;5008153;28;20239;-76
2021/08/25 03:05:36;;;;;;;0.95;0.90;;;17.00;99.90;;;;;;5006806;28;20764;-79
2021/08/25 03:08:03;;;;;;;1.00;1.00;;;17.00;99.90;;;;;;5011514;28;20594;-79
2021/08/25 03:10:30;;;;;;;1.73;0.80;;;17.00;99.90;;;;;;5010196;28;20435;-77
2021/08/25 03:13:39;;;;;;;0.88;0.88;;;17.00;99.90;;;;;;5011380;28;20227;-80
2021/08/25 03:16:09;;;;;;;1.23;0.90;;;17.00;99.90;;;;;;5006957;28;20224;-78
2021/08/25 03:18:36;;;;;;;0.70;0.70;;;17.00;99.90;;;;;;5010593;28;20231;-77
2021/08/25 03:21:03;;;;;;;0.85;0.85;;;17.00;99.90;;;;;;5012641;28;20710;-78
2021/08/25 03:23:30;;;;;;;1.15;0.70;;;17.00;99.90;;;;;;5004094;28;20230;-82
2021/08/25 03:25:57;;;;;;;0.80;0.80;;;17.00;99.90;;;;;;5007343;28;20829;-77
2021/08/25 03:28:24;;;;;;;0.90;0.90;;;16.90;99.90;;;;;;5012148;28;20220;-78
2021/08/25 03:30:56;;;;;;;0.80;0.80;;;16.90;99.90;;;;;;5005230;28;20228;-80
2021/08/25 03:33:25;;;;;;;0.75;0.75;;;16.90;99.90;;;;;;5007685;28;20742;-80
2021/08/25 03:35:52;;;;;;;0.77;0.77;;;16.90;99.90;;;;;;5011535;28;20314;-78
2021/08/25 03:38:19;;;;;;;0.60;0.60;;;16.90;99.90;;;;;;5006004;28;20246;-79
2021/08/25 03:40:46;;;;;;;1.23;1.00;;;16.80;99.90;;;;;;5005325;28;20224;-78
2021/08/25 03:43:13;;;;;;;0.80;0.80;;;16.80;99.90;;;;;;4997464;28;20224;-81
2021/08/25 03:45:40;;;;;;;0.98;0.98;;;16.80;99.90;;;;;;5009978;28;20299;-77
2021/08/25 03:48:07;;;;;;;0.80;0.80;;;16.70;99.90;;;;;;5009719;28;20220;-76
2021/08/25 03:50:36;;;;;;;0.80;0.80;;;16.70;99.90;;;;;;5010513;28;20284;-79
2021/08/25 03:53:03;;;;;;;0.70;0.70;;;16.80;99.90;;;;;;5013411;28;20220;-78
2021/08/25 03:55:30;;;;;;;0.82;0.82;;;16.80;99.90;;;;;;5007560;28;20216;-80
2021/08/25 03:57:57;;;;;;;0.80;0.80;;;16.80;99.90;;;;;;5011626;28;20276;-80
2021/08/25 04:00:25;;;;;;;0.90;0.90;;;16.80;99.90;;;;;;5006125;28;20227;-79
2021/08/25 04:02:52;;;;;;;0.85;0.85;;;16.80;99.90;;;;;;5014686;28;20303;-79
2021/08/25 04:05:19;;;;;;;0.93;0.93;;;16.70;99.90;;;;;;5004931;28;20227;-85
2021/08/25 04:07:51;;;;;;;0.85;0.85;;;16.60;99.90;;;;;;5008138;28;20216;-79
2021/08/25 04:10:18;;;;;;;1.00;0.90;;;16.60;99.90;;;;;;5017325;28;20721;-77
2021/08/25 04:12:45;;;;;;;0.70;0.68;;;16.50;99.90;;;;;;5016679;28;20223;-79
2021/08/25 04:15:12;;;;;;;0.80;0.80;;;16.40;99.90;;;;;;5015365;28;20282;-79
2021/08/25 04:17:39;;;;;;;0.90;0.85;;;16.40;99.90;;;;;;5009675;28;20231;-83
2021/08/25 04:20:07;;;;;;;0.85;0.85;;;16.40;99.90;;;;;;5015034;28;20239;-78
2021/08/25 04:22:34;;;;;;;0.82;0.82;;;16.50;99.90;;;;;;5013819;28;20228;-77
2021/08/25 04:25:03;;;;;;;0.82;0.82;;;16.50;99.90;;;;;;5012714;28;20237;-78
2021/08/25 04:27:30;;;;;;;0.75;0.75;;;16.60;99.90;;;;;;5013021;28;20224;-79
2021/08/25 04:29:57;;;;;;;0.85;0.85;;;16.60;99.90;;;;;;5008963;28;20239;-80
2021/08/25 04:32:24;;;;;;;0.73;0.73;;;16.70;99.90;;;;;;5010553;28;20216;-79
2021/08/25 04:34:51;;;;;;;0.90;0.90;;;16.70;99.90;;;;;;5014365;28;20298;-81
2021/08/25 04:37:18;;;;;;;0.80;0.80;;;16.70;99.90;;;;;;5012533;28;20676;-78
2021/08/25 04:39:45;;;;;;;0.75;0.75;;;16.70;99.90;;;;;;5010787;28;20706;-79
2021/08/25 04:42:14;;;;;;;0.70;0.70;;;16.70;99.90;;;;;;5005777;28;20291;-78
2021/08/25 04:44:41;;;;;;;1.27;0.73;;;16.70;99.90;;;;;;5012028;28;20232;-81
2021/08/25 04:47:08;;;;;;;0.70;0.70;;;16.80;99.90;;;;;;5006452;28;20215;-78
2021/08/25 04:49:35;;;;;;;0.63;0.63;;;16.80;99.90;;;;;;5011730;28;20235;-82
2021/08/25 04:52:02;;;;;;;0.70;0.70;;;16.80;99.90;;;;;;5006681;28;20262;-81
2021/08/25 04:54:29;;;;;;;0.80;0.80;;;16.80;99.90;;;;;;5012044;28;20709;-79
2021/08/25 04:56:57;;;;;;;0.65;0.65;;;16.80;99.90;;;;;;5012185;28;20234;-79
2021/08/25 04:59:26;;;;;;;1.02;0.80;;;16.80;99.90;;;;;;5009058;28;20238;-81
2021/08/25 05:01:53;;;;;;;0.82;0.82;;;16.80;99.90;;;;;;5009379;28;20228;-78
2021/08/25 05:04:20;;;;;;;0.80;0.80;;;16.80;99.90;;;;;;5008716;28;20223;-80
2021/08/25 05:06:47;;;;;;;0.80;0.80;;;16.90;99.90;;;;;;5006977;28;20220;-78
2021/08/25 05:09:14;;;;;;;0.95;0.70;;;16.80;99.90;;;;;;5010421;28;20223;-80
2021/08/25 05:11:41;;;;;;;0.70;0.70;;;16.80;99.90;;;;;;5036175;23;20301;-77
2021/08/25 05:14:08;;;;;;;0.70;0.70;;;16.90;99.90;;;;;;5021258;28;20230;-77
2021/08/25 05:16:36;;;;;;;0.75;0.75;;;16.90;99.90;;;;;;5024195;28;20310;-77
2021/08/25 05:19:03;;;;;;;0.70;0.70;;;16.90;99.90;;;;;;5024374;28;20691;-77
2021/08/25 05:21:30;;;;;;;0.95;0.95;;;16.90;99.90;;;;;;5012781;28;20228;-77
2021/08/25 05:24:01;;;;;;;1.15;1.00;;;17.00;99.90;;;;;;4998340;28;20227;-77
2021/08/25 05:26:28;;;;;;;1.10;1.02;;;17.00;99.90;;;;;;5003754;28;20702;-76
2021/08/25 05:28:56;;;;;;;1.10;1.02;;;17.00;99.90;;;;;;5003329;28;20295;-77
2021/08/25 05:31:23;;;;;;;0.88;0.88;;;17.00;99.90;;;;;;5004471;28;20235;-77
2021/08/25 05:33:52;;;;;;;0.82;0.82;;;17.10;99.90;;;;;;5000494;28;20227;-77
2021/08/25 05:36:19;;;;;;;0.77;0.77;;;17.20;99.90;;;;;;5000753;28;20232;-76
2021/08/25 05:38:46;;;;;;;0.90;0.90;;;17.30;99.90;;;;;;5005449;28;20223;-76
2021/08/25 05:41:13;;;;;;;0.82;0.82;;;17.40;99.90;;;;;;5004287;28;20227;-77
2021/08/25 05:43:40;;;;;;;0.60;0.60;;;17.50;99.90;;;;;;5000653;28;20484;-76
2021/08/25 05:46:07;;;;;;;1.00;1.00;;;17.90;99.90;;;;;;5001446;28;20293;-77
2021/08/25 05:48:34;;;;;;;1.15;1.00;;;18.30;99.90;;;;;;5002636;28;20235;-76
2021/08/25 05:51:03;;;;;;;0.90;0.90;;;18.50;99.90;;;;;;5005232;28;20227;-77
2021/08/25 05:53:30;;;;;;;1.52;1.15;;;18.80;99.90;;;;;;5001966;28;20220;-77
2021/08/25 05:55:57;;;;;;;1.73;1.25;;;19.00;99.90;;;;;;5003342;28;20302;-76
2021/08/25 05:58:24;;;;;;;1.85;1.40;;;19.20;99.90;;;;;;5003508;28;20706;-77
2021/08/25 06:00:51;;;;;;;1.38;1.27;;;19.30;99.90;;;;;;5003371;28;20283;-77
2021/08/25 06:03:18;;;;;;;1.40;1.20;;;19.40;99.90;;;;;;5004550;28;20642;-77
2021/08/25 06:05:45;;;;;;;1.20;1.10;;;19.60;99.90;;;;;;5007291;28;20212;-78
2021/08/25 06:08:13;;;;;;;1.33;1.23;;;19.70;99.90;;;;;;5003491;28;20764;-77
2021/08/25 06:10:40;;;;;;;1.05;0.95;;;19.80;99.90;;;;;;5007894;28;20227;-78
2021/08/25 06:13:07;;;;;;;1.20;0.90;;;19.90;99.90;;;;;;5003041;28;20228;-76
2021/08/25 06:15:34;;;;;;;0.90;0.90;;;19.90;99.90;;;;;;5001998;28;20231;-76
2021/08/25 06:18:01;;;;;;;1.13;1.02;;;20.00;99.90;;;;;;5007397;28;20224;-77
2021/08/25 06:20:31;;;;;;;1.27;1.17;;;20.10;99.90;;;;;;5005866;28;20228;-74
2021/08/25 06:22:58;;;;;;;1.20;0.90;;;20.20;99.90;;;;;;5003789;28;20227;-78
2021/08/25 06:25:26;;;;;;;1.27;1.17;;;20.30;99.90;;;;;;5000927;28;20220;-78
2021/08/25 06:27:54;;;;;;;2.03;1.30;;;20.40;99.90;;;;;;5000459;28;20224;-74
2021/08/25 06:30:21;;;;;;;1.45;1.05;;;20.50;99.90;;;;;;4991950;28;20766;-76
2021/08/25 06:32:48;;;;;;;1.42;1.20;;;20.50;99.90;;;;;;4993983;28;20221;-77
2021/08/25 06:35:15;;;;;;;1.05;0.98;;;20.60;99.90;;;;;;4996002;28;20232;-74
2021/08/25 06:37:42;;;;;;;1.25;1.02;;;20.60;99.90;;;;;;4991374;28;20224;-73
2021/08/25 06:40:11;;;;;;;1.38;1.00;;;20.80;99.90;;;;;;4995107;28;20224;-76
2021/08/25 06:42:40;;;;;;;1.25;1.10;;;21.10;99.90;;;;;;4994383;28;21182;-77
2021/08/25 06:45:08;;;;;;;1.20;1.10;;;21.20;99.90;;;;;;4990057;28;20533;-79
2021/08/25 06:47:35;;;;;;;1.02;0.93;;;21.50;99.90;;;;;;4990049;28;20710;-77
2021/08/25 06:50:02;;;;;;;2.65;1.30;;;21.60;99.90;;;;;;4993110;28;20628;-78
2021/08/25 06:52:29;;;;;;;0.93;0.93;;;21.80;99.90;;;;;;4998341;28;20231;-76
2021/08/25 06:54:56;;;;;;;0.90;0.90;;;22.10;99.90;;;;;;4999279;28;20228;-76
2021/08/25 06:57:23;;;;;;;1.15;0.98;;;22.20;99.90;;;;;;4991604;28;20219;-77
2021/08/25 06:59:51;;;;;;;1.40;1.05;;;22.30;99.90;;;;;;4993136;28;20224;-77
2021/08/25 07:02:18;;;;;;;1.02;1.00;;;22.40;99.90;;;;;;4996791;28;20239;-76
2021/08/25 07:04:46;;;;;;;2.53;1.20;;;22.40;99.90;;;;;;5003135;28;20302;-76
2021/08/25 07:07:13;;;;;;;1.35;0.98;;;22.40;99.90;;;;;;4994750;28;20252;-77
2021/08/25 07:09:40;;;;;;;0.90;0.90;;;22.30;99.90;;;;;;4994397;28;20278;-74
2021/08/25 07:12:08;;;;;;;1.40;0.90;;;22.10;99.90;;;;;;4993949;28;20224;-76
2021/08/25 07:14:36;;;;;;;2.60;1.15;;;22.00;99.90;;;;;;4994765;28;20559;-74
2021/08/25 07:17:04;;;;;;;1.88;0.75;;;21.80;99.90;;;;;;4989803;28;20275;-77
2021/08/25 07:19:31;;;;;;;0.82;0.73;;;21.80;99.90;;;;;;4994617;28;20270;-76
2021/08/25 07:21:58;;;;;;;0.77;0.70;;;22.10;99.90;;;;;;4988850;28;20233;-78
2021/08/25 07:24:25;;;;;;;0.80;0.80;;;22.30;99.90;;;;;;4994632;28;20235;-77
2021/08/25 07:26:52;;;;;;;0.80;0.80;;;22.60;99.90;;;;;;4993322;28;20221;-76
2021/08/25 07:29:22;;;;;;;1.10;0.90;;;22.90;99.90;;;;;;4996816;28;20235;-75
2021/08/25 07:31:49;;;;;;;0.70;0.70;;;23.00;99.90;;;;;;4986870;28;20295;-76
2021/08/25 07:34:18;;;;;;;0.82;0.82;;;23.30;99.90;;;;;;4993192;28;20294;-77
2021/08/25 07:36:45;;;;;;;2.17;1.20;;;23.30;99.90;;;;;;4994664;28;20299;-73
2021/08/25 07:39:12;;;;;;;1.08;0.90;;;23.00;99.90;;;;;;4990824;28;20792;-74
2021/08/25 07:41:39;;;;;;;0.77;0.77;;;23.00;99.90;;;;;;4989153;28;20235;-78
2021/08/25 07:44:08;;;;;;;0.93;0.70;;;23.00;99.90;;;;;;4988131;28;20231;-77
2021/08/25 07:46:35;;;;;;;0.65;0.65;;;23.00;99.90;;;;;;4994351;28;20228;-74
2021/08/25 07:49:03;;;;;;;1.00;0.88;;;23.20;99.90;;;;;;4991707;28;20832;-76
2021/08/25 07:51:31;;;;;;;0.80;0.73;;;23.20;99.90;;;;;;4993482;28;20641;-76
2021/08/25 07:53:58;;;;;;;1.55;0.85;;;23.10;99.90;;;;;;4994684;28;20257;-76
2021/08/25 07:56:25;;;;;;;2.10;0.85;;;23.00;99.90;;;;;;4995412;28;20235;-76
2021/08/25 07:58:52;;;;;;;2.13;1.27;;;23.20;99.90;;;;;;4996904;28;20239;-77
2021/08/25 08:01:19;;;;;;;1.00;1.00;;;23.50;99.90;;;;;;4992217;28;20228;-76
2021/08/25 08:03:46;;;;;;;0.80;0.80;;;23.80;99.90;;;;;;4992596;28;20231;-75
2021/08/25 08:06:13;;;;;;;1.00;0.90;;;23.70;99.90;;;;;;4989350;28;20514;-75
2021/08/25 08:08:42;;;;;;;1.00;0.90;;;23.60;99.90;;;;;;4995746;28;20236;-74
2021/08/25 08:11:11;;;;;;;2.22;1.40;;;23.60;99.90;;;;;;4993208;28;20232;-75
2021/08/25 08:13:38;;;;;;;2.30;1.35;;;23.60;99.90;;;;;;4992500;28;20240;-74
2021/08/25 08:16:06;;;;;;;2.38;0.95;;;23.90;99.90;;;;;;4989767;28;20227;-75
2021/08/25 08:18:35;;;;;;;1.02;0.90;;;24.40;99.90;;;;;;4994502;28;20278;-74
2021/08/25 08:21:04;;;;;;;0.70;0.70;;;24.70;99.90;;;;;;4993344;28;20231;-73
2021/08/25 08:23:32;;;;;;;0.80;0.75;;;24.80;99.90;;;;;;4993174;28;20363;-73
2021/08/25 08:26:03;;;;;;;0.70;0.60;;;24.70;99.90;;;;;;4988924;28;20236;-74
2021/08/25 08:28:30;;;;;;;6.03;1.45;;;24.20;99.90;;;;;;4989744;28;20232;-75
2021/08/25 08:30:57;;;;;;;1.98;1.02;;;24.10;99.90;;;;;;4993097;28;20232;-72
2021/08/25 08:33:24;;;;;;;1.38;0.93;;;24.00;99.90;;;;;;4992529;28;20254;-73
2021/08/25 08:35:51;;;;;;;1.40;1.30;;;23.60;99.90;;;;;;4990244;28;20374;-76
2021/08/25 08:38:18;;;;;;;2.05;1.15;;;23.60;99.90;;;;;;4989307;28;20821;-74
2021/08/25 08:40:45;;;;;;;1.10;1.00;;;23.60;99.90;;;;;;4992971;28;20231;-74
2021/08/25 08:43:14;;;;;;;5.93;2.45;;;23.60;99.90;;;;;;4990705;28;20671;-75
2021/08/25 08:45:44;;;;;;;1.25;1.15;;;23.70;99.90;;;;;;4994432;28;20507;-75
2021/08/25 08:48:12;;;;;;;2.58;0.88;;;24.00;99.90;;;;;;4994570;28;20235;-76
2021/08/25 08:50:41;;;;;;;0.93;0.80;;;24.20;99.90;;;;;;4986929;28;20521;-76
2021/08/25 08:53:10;;;;;;;4.07;2.00;;;24.50;99.90;;;;;;4989291;28;20228;-74
2021/08/25 08:55:38;;;;;;;3.30;1.35;;;24.70;99.90;;;;;;4994614;28;20586;-73
2021/08/25 08:58:06;;;;;;;2.75;0.85;;;24.70;99.90;;;;;;4987371;28;20787;-74
2021/08/25 09:00:35;;;;;;;11.05;2.88;;;24.70;99.90;;;;;;4990064;28;20300;-74
2021/08/25 09:03:02;;;;;;;4.95;1.80;;;24.90;99.90;;;;;;4992316;28;20661;-74
2021/08/25 09:05:32;;;;;;;1.30;1.20;;;24.80;99.90;;;;;;4993127;28;20232;-75
2021/08/25 09:08:00;;;;;;;8.73;3.08;;;24.90;99.90;;;;;;4996777;28;20733;-75
2021/08/25 09:10:29;;;;;;;2.88;1.40;;;25.00;99.90;;;;;;4989497;28;20223;-74
2021/08/25 09:12:59;;;;;;;1.00;0.80;;;25.10;99.90;;;;;;4991964;28;20677;-73
2021/08/25 09:15:27;;;;;;;0.70;0.70;;;24.90;99.90;;;;;;4987791;28;20238;-74
2021/08/25 09:18:01;;;;;;;0.68;0.60;;;24.90;99.90;;;;;;4997576;28;20274;-71
2021/08/25 09:20:30;;;;;;;2.35;1.30;;;25.10;99.90;;;;;;4993620;28;20282;-74
2021/08/25 09:23:15;;;;;;;0.88;0.88;;;25.30;99.90;;;;;;4990885;28;20227;-73
2021/08/25 09:25:43;;;;;;;17.88;4.28;;;25.50;99.90;;;;;;4988648;28;20232;-73
2021/08/25 09:28:13;;;;;;;4.93;1.65;;;25.70;99.90;;;;;;4988512;28;20336;-71
2021/08/25 09:31:07;;;;;;;1.83;1.10;;;25.90;99.90;;;;;;4989074;28;20236;-73
2021/08/25 09:33:37;;;;;;;4.78;1.65;;;25.90;99.90;;;;;;4925941;28;20224;-73
2021/08/25 09:36:06;;;;;;;6.43;2.35;;;26.00;99.90;;;;;;4993022;28;20646;-72
2021/08/25 09:38:36;;;;;;;3.45;1.17;;;25.70;99.90;;;;;;4993625;28;20219;-73
2021/08/25 09:41:06;;;;;;;5.07;1.70;;;25.50;99.90;;;;;;4992093;28;20599;-71
2021/08/25 09:43:36;;;;;;;2.20;1.17;;;25.60;99.90;;;;;;4996885;28;20220;-74
2021/08/25 09:46:07;;;;;;;1.23;0.68;;;25.60;99.90;;;;;;4991994;28;20229;-74
2021/08/25 09:48:37;;;;;;;2.05;0.98;;;25.70;99.90;;;;;;4992641;28;20232;-71
2021/08/25 09:51:05;;;;;;;0.88;0.85;;;25.80;99.90;;;;;;4995957;28;20215;-74
2021/08/25 09:53:32;;;;;;;2.15;0.82;;;25.70;99.90;;;;;;4991051;28;20220;-72
2021/08/25 09:55:59;;;;;;;0.60;0.60;;;25.80;99.90;;;;;;4992667;28;20223;-71
2021/08/25 09:58:26;;;;;;;5.57;0.70;;;26.00;99.90;;;;;;4986586;28;20243;-75
2021/08/25 10:00:55;;;;;;;0.77;0.60;;;25.90;99.90;;;;;;4992580;28;20753;-74
2021/08/25 10:03:22;;;;;;;0.73;0.65;;;25.70;99.90;;;;;;4991371;28;20414;-72
2021/08/25 10:05:51;;;;;;;0.60;0.60;;;25.90;99.90;;;;;;4994878;28;20557;-74
2021/08/25 10:08:18;;;;;;;1.00;0.60;;;26.10;99.90;;;;;;4993132;28;20616;-73
2021/08/25 10:10:46;;;;;;;1.33;0.80;;;25.80;99.90;;;;;;4998403;28;20216;-73
2021/08/25 10:13:14;;;;;;;1.27;0.80;;;25.40;99.90;;;;;;4993864;28;20230;-74
2021/08/25 10:15:45;;;;;;;1.00;0.68;;;25.00;99.90;;;;;;4993609;28;20229;-73
2021/08/25 10:18:29;;;;;;;0.50;0.50;;;24.80;99.90;;;;;;4993420;28;20235;-72
2021/08/25 10:20:58;;;;;;;0.45;0.45;;;24.50;99.90;;;;;;4991329;28;20239;-73
2021/08/25 10:24:04;;;;;;;0.70;0.70;;;24.80;99.90;;;;;;4991038;28;24085;-70
2021/08/25 10:26:32;;;;;;;0.82;0.60;;;25.00;99.90;;;;;;4975788;28;20893;-71
2021/08/25 10:29:08;;;;;;;0.63;0.55;;;25.30;99.90;;;;;;4996131;28;20306;-74
2021/08/25 10:32:20;;;;;;;0.90;0.73;;;25.90;99.90;;;;;;4992580;28;20337;-73
2021/08/25 10:35:17;;;;;;;0.60;0.60;;;26.00;99.90;;;;;;4949481;28;20227;-74
2021/08/25 10:37:47;;;;;;;0.50;0.50;;;26.30;99.90;;;;;;4994642;28;20404;-71
2021/08/25 10:40:15;;;;;;;0.60;0.60;;;26.70;99.90;;;;;;4989929;28;20232;-74
2021/08/25 10:42:48;;;;;;;0.73;0.70;;;27.00;99.90;;;;;;4993870;28;20227;-72
2021/08/25 10:45:16;;;;;;;0.52;0.52;;;27.00;99.90;;;;;;4998745;28;20270;-71
2021/08/25 10:47:57;;;;;;;0.50;0.50;;;26.70;99.90;;;;;;4992456;28;20212;-71
2021/08/25 10:50:25;;;;;;;0.50;0.50;;;26.30;99.90;;;;;;4994770;28;20223;-72
2021/08/25 10:52:53;;;;;;;0.50;0.50;;;25.90;99.90;;;;;;4992198;28;20290;-72
2021/08/25 10:55:20;;;;;;;0.60;0.38;;;25.90;99.90;;;;;;4994127;28;20282;-72
2021/08/25 10:57:47;;;;;;;0.40;0.40;;;26.20;99.90;;;;;;4996341;28;20277;-73
2021/08/25 11:00:15;;;;;;;0.93;0.60;;;26.40;99.90;;;;;;4989822;28;20224;-73
2021/08/25 11:02:44;;;;;;;0.60;0.60;;;26.40;99.90;;;;;;4990072;28;20231;-73
2021/08/25 11:05:11;;;;;;;0.60;0.60;;;26.50;99.90;;;;;;4994439;28;20232;-73
2021/08/25 11:07:42;;;;;;;0.60;0.60;;;26.40;99.90;;;;;;4993019;28;21758;-73
2021/08/25 11:10:11;;;;;;;0.60;0.60;;;26.20;99.90;;;;;;4995129;28;20249;-74
2021/08/25 11:12:44;;;;;;;0.40;0.40;;;26.30;99.90;;;;;;4994625;28;20232;-73
2021/08/25 11:15:12;;;;;;;0.40;0.40;;;26.40;99.90;;;;;;4992028;28;20231;-71
2021/08/25 11:17:42;;;;;;;0.40;0.40;;;26.50;99.90;;;;;;4992098;28;20466;-74
2021/08/25 11:20:10;;;;;;;0.50;0.50;;;26.60;99.90;;;;;;4993259;28;20271;-74
2021/08/25 11:22:39;;;;;;;0.70;0.70;;;26.70;99.90;;;;;;4996986;28;20680;-75
2021/08/25 11:27:54;;;;;;;0.50;0.50;;;26.90;99.90;;;;;;5008236;28;20276;-75
2021/08/25 11:30:23;;;;;;;0.60;0.57;;;26.80;99.90;;;;;;5006816;28;20234;-74
2021/08/25 11:32:52;;;;;;;0.60;0.60;;;26.60;99.90;;;;;;5011857;28;20239;-74
2021/08/25 11:35:25;;;;;;;0.50;0.50;;;26.40;99.90;;;;;;5010417;28;20226;-73
2021/08/25 11:38:03;;;;;;;0.80;0.60;;;26.40;99.90;;;;;;5017244;28;20594;-76
2021/08/25 11:40:33;;;;;;;0.52;0.52;;;26.30;99.90;;;;;;5011639;28;20258;-74
2021/08/25 11:43:13;;;;;;;0.90;0.63;;;26.20;99.90;;;;;;5014607;28;20224;-76
2021/08/25 11:45:44;;;;;;;0.50;0.50;;;26.30;99.90;;;;;;5016477;28;20315;-75
2021/08/25 11:48:12;;;;;;;0.95;0.60;;;26.60;99.90;;;;;;5017096;28;20238;-75
2021/08/25 11:50:40;;;;;;;0.70;0.70;;;26.70;99.90;;;;;;5015773;28;20235;-72
2021/08/25 11:53:13;;;;;;;0.73;0.73;;;26.60;99.90;;;;;;5016492;28;20242;-74
2021/08/25 11:55:40;;;;;;;0.50;0.50;;;26.50;99.90;;;;;;5014730;28;20235;-75
2021/08/25 11:58:21;;;;;;;0.60;0.60;;;26.50;99.90;;;;;;5015261;28;20242;-74
2021/08/25 12:00:49;;;;;;;2.50;0.60;;;26.60;99.90;;;;;;5013523;28;20957;-73
2021/08/25 12:03:16;;;;;;;0.57;0.50;;;26.50;99.90;;;;;;5013190;28;20227;-72
2021/08/25 12:05:52;;;;;;;0.77;0.73;;;26.40;99.90;;;;;;5017153;28;20297;-75
2021/08/25 12:08:19;;;;;;;0.60;0.60;;;26.50;99.90;;;;;;5014070;28;20332;-74
2021/08/25 12:10:49;;;;;;;0.50;0.50;;;26.60;99.90;;;;;;5016077;28;20223;-76
2021/08/25 12:16:22;;;;;;;0.55;0.43;;;26.80;99.90;;;;;;5034684;27;1311077;-80
2021/08/25 12:18:51;;;;;;;0.60;0.50;;;27.00;99.90;;;;;;5064809;28;20238;-79
2021/08/25 12:21:19;;;;;;;0.45;0.45;;;27.10;99.90;;;;;;5068244;28;20663;-77
2021/08/25 12:23:57;;;;;;;0.30;0.30;;;27.00;99.90;;;;;;5065507;28;20217;-80
2021/08/25 12:26:25;;;;;;;0.40;0.40;;;27.00;99.90;;;;;;5066869;28;20588;-78
2021/08/25 12:28:52;;;;;;;0.68;0.40;;;27.00;99.90;;;;;;5067169;28;20722;-77
2021/08/25 12:31:22;;;;;;;0.43;0.43;;;27.00;99.90;;;;;;5064677;28;20228;-79
2021/08/25 12:33:54;;;;;;;0.35;0.35;;;27.10;99.90;;;;;;5065049;28;20233;-77
2021/08/25 12:36:23;;;;;;;0.40;0.40;;;27.20;99.90;;;;;;5067324;28;20222;-78
2021/08/25 12:38:51;;;;;;;0.55;0.50;;;27.20;99.90;;;;;;5048307;28;20974;-78
2021/08/25 12:41:20;;;;;;;0.40;0.40;;;27.20;99.90;;;;;;5052739;28;20221;-77
2021/08/25 12:43:47;;;;;;;0.40;0.40;;;27.30;99.90;;;;;;5052068;28;20222;-79
2021/08/25 12:46:15;;;;;;;0.63;0.47;;;27.30;99.90;;;;;;5047295;28;20241;-78
2021/08/25 12:48:43;;;;;;;0.47;0.47;;;27.30;99.90;;;;;;5049248;28;20782;-78
2021/08/25 12:51:10;;;;;;;0.40;0.40;;;27.40;99.90;;;;;;5044716;28;20218;-77
2021/08/25 12:53:37;;;;;;;0.47;0.45;;;27.60;99.90;;;;;;5048671;28;20700;-78
2021/08/25 12:56:05;;;;;;;0.40;0.40;;;27.60;99.90;;;;;;5051603;28;20229;-78
2021/08/25 12:58:32;;;;;;;1.48;0.40;;;27.50;99.90;;;;;;5055921;28;20255;-78